Time;durP1;ratioP1;P1;durP2;ratioP2;P2;SDS_P1;SDS_P2;PMS_P1;PMS_P2;Temp;Humidity;BMP_temperature;BMP_pressure;BME280_temperature;BME280_humidity;BME280_pressure;Samples;Min_cycle;Max_cycle;Signal;HPM_P1;HPM_P2
2023/01/31 00:01:14;;;;;;;;;11.00;10.50;;;;;-147.17;100.00;-15917.19;4993968;28;51184;-69
2023/01/31 00:03:42;;;;;;;;;10.25;9.75;;;;;-147.17;100.00;-15917.19;4993681;28;51003;-69
2023/01/31 00:06:11;;;;;;;;;12.25;12.00;;;;;-147.17;100.00;-15917.19;4976084;28;51284;-70
2023/01/31 00:08:37;;;;;;;;;12.75;11.75;;;;;-147.17;100.00;-15917.19;4993407;28;51051;-69
2023/01/31 00:11:02;;;;;;;;;15.75;12.50;;;;;-147.17;100.00;-15917.19;4993645;28;50943;-68
2023/01/31 00:13:27;;;;;;;;;12.75;11.00;;;;;-147.17;100.00;-15917.19;4997047;28;52156;-68
2023/01/31 00:15:55;;;;;;;;;12.00;11.75;;;;;-147.17;100.00;-15917.19;4997478;28;51069;-71
2023/01/31 00:18:21;;;;;;;;;13.75;13.00;;;;;-147.17;100.00;-15917.19;4982117;28;51067;-70
2023/01/31 00:20:46;;;;;;;;;13.25;12.50;;;;;-147.17;100.00;-15917.19;4995446;28;51990;-67
2023/01/31 00:23:12;;;;;;;;;14.75;14.50;;;;;-147.17;100.00;-15917.19;4997683;28;51249;-70
2023/01/31 00:25:37;;;;;;;;;15.00;14.25;;;;;-147.17;100.00;-15917.19;4976973;28;51158;-68
2023/01/31 00:28:02;;;;;;;;;13.25;13.25;;;;;-147.17;100.00;-15917.19;4995916;28;51153;-71
2023/01/31 00:30:28;;;;;;;;;16.25;15.50;;;;;-147.17;100.00;-15917.19;4994560;28;51285;-68
2023/01/31 00:32:53;;;;;;;;;15.75;14.50;;;;;-147.17;100.00;-15917.19;4996584;28;50936;-68
2023/01/31 00:35:19;;;;;;;;;14.50;13.50;;;;;-147.17;100.00;-15917.19;4994872;28;50987;-69
2023/01/31 00:37:44;;;;;;;;;16.00;14.75;;;;;-147.17;100.00;-15917.19;4994725;28;51305;-68
2023/01/31 00:40:10;;;;;;;;;14.50;13.00;;;;;-147.17;100.00;-15917.19;4993813;28;52176;-67
2023/01/31 00:42:35;;;;;;;;;12.25;11.75;;;;;-147.17;100.00;-15917.19;4993217;28;51063;-69
2023/01/31 00:45:00;;;;;;;;;12.25;10.75;;;;;-147.17;100.00;-15917.19;4994841;28;51208;-69
2023/01/31 00:47:26;;;;;;;;;11.75;11.50;;;;;-147.17;100.00;-15917.19;4961568;28;51196;-70
2023/01/31 00:49:51;;;;;;;;;13.25;11.50;;;;;-147.17;100.00;-15917.19;4977917;28;52255;-69
2023/01/31 00:52:16;;;;;;;;;12.25;12.00;;;;;-147.17;100.00;-15917.19;4974192;28;51092;-68
2023/01/31 00:54:42;;;;;;;;;17.75;15.50;;;;;-147.17;100.00;-15917.19;4993472;28;51483;-68
2023/01/31 00:57:07;;;;;;;;;15.75;15.00;;;;;-147.17;100.00;-15917.19;4975987;28;51043;-68
2023/01/31 00:59:32;;;;;;;;;14.50;13.75;;;;;-147.17;100.00;-15917.19;4993672;28;51990;-68
2023/01/31 01:01:58;;;;;;;;;19.50;16.50;;;;;-147.17;100.00;-15917.19;4991452;28;50965;-67
2023/01/31 01:04:23;;;;;;;;;13.25;11.00;;;;;-147.17;100.00;-15917.19;4994703;28;51395;-70
2023/01/31 01:06:49;;;;;;;;;17.00;16.75;;;;;-147.17;100.00;-15917.19;4975561;28;51003;-69
2023/01/31 01:09:15;;;;;;;;;16.00;16.00;;;;;-147.17;100.00;-15917.19;4991115;28;52058;-69
2023/01/31 01:11:40;;;;;;;;;23.00;18.00;;;;;-147.17;100.00;-15917.19;4993306;28;51158;-70
2023/01/31 01:14:06;;;;;;;;;28.25;25.75;;;;;-147.17;100.00;-15917.19;4994156;28;52213;-70
2023/01/31 01:16:37;;;;;;;;;21.50;19.50;;;;;-147.17;100.00;-15917.19;4992781;28;50927;-70
2023/01/31 01:19:08;;;;;;;;;24.25;20.75;;;;;-147.17;100.00;-15917.19;4993012;28;51038;-69
2023/01/31 01:21:37;;;;;;;;;26.50;26.00;;;;;-147.17;100.00;-15917.19;4992516;28;51176;-69
2023/01/31 01:24:04;;;;;;;;;25.25;24.25;;;;;-147.17;100.00;-15917.19;4988634;28;51115;-69
2023/01/31 01:26:32;;;;;;;;;34.50;30.75;;;;;-147.17;100.00;-15917.19;4971716;28;51396;-69
2023/01/31 01:28:59;;;;;;;;;26.00;26.00;;;;;-147.17;100.00;-15917.19;4993096;28;51141;-70
2023/01/31 01:31:28;;;;;;;;;25.75;24.00;;;;;-147.17;100.00;-15917.19;4980180;28;50995;-70
2023/01/31 01:33:57;;;;;;;;;25.00;23.00;;;;;-147.17;100.00;-15917.19;4992471;28;51113;-69
2023/01/31 01:36:23;;;;;;;;;24.00;24.00;;;;;-147.17;100.00;-15917.19;4988563;28;51141;-71
2023/01/31 01:38:48;;;;;;;;;20.00;18.00;;;;;-147.17;100.00;-15917.19;4976416;28;53939;-69
2023/01/31 01:41:14;;;;;;;;;21.50;19.50;;;;;-147.17;100.00;-15917.19;4995995;28;51270;-71
2023/01/31 01:43:46;;;;;;;;;22.00;20.00;;;;;-147.17;100.00;-15917.19;4992138;28;51185;-71
2023/01/31 01:46:40;;;;;;;;;20.25;19.25;;;;;-147.17;100.00;-15917.19;4990290;28;50976;-69
2023/01/31 01:49:11;;;;;;;;;15.00;14.75;;;;;-147.17;100.00;-15917.19;4987832;28;51213;-72
2023/01/31 01:51:38;;;;;;;;;17.50;15.50;;;;;-147.17;100.00;-15917.19;4989072;28;51227;-71
2023/01/31 01:54:12;;;;;;;;;16.25;15.50;;;;;-147.17;100.00;-15917.19;4990359;28;51176;-71
2023/01/31 01:56:42;;;;;;;;;13.25;12.00;;;;;-147.17;100.00;-15917.19;4994532;28;51003;-70
2023/01/31 01:59:32;;;;;;;;;19.00;16.00;;;;;-147.17;100.00;-15917.19;4997496;28;52088;-70
2023/01/31 02:01:57;;;;;;;;;22.00;19.50;;;;;-147.17;100.00;-15917.19;4995840;28;51240;-71
2023/01/31 02:04:29;;;;;;;;;16.25;15.25;;;;;-147.17;100.00;-15917.19;4993953;28;51214;-71
2023/01/31 02:06:54;;;;;;;;;21.50;19.25;;;;;-147.17;100.00;-15917.19;4976037;28;51476;-70
2023/01/31 02:09:47;;;;;;;;;18.75;16.00;;;;;-147.17;100.00;-15917.19;4989893;28;51106;-68
2023/01/31 02:12:12;;;;;;;;;24.50;20.75;;;;;-147.17;100.00;-15917.19;5000820;28;51110;-72
2023/01/31 02:14:38;;;;;;;;;15.75;15.50;;;;;-147.17;100.00;-15917.19;4995301;28;51157;-70
2023/01/31 02:17:03;;;;;;;;;22.50;17.75;;;;;-147.17;100.00;-15917.19;4987334;28;51035;-71
2023/01/31 02:19:54;;;;;;;;;16.50;15.75;;;;;-147.17;100.00;-15917.19;4996078;28;51156;-69
2023/01/31 02:22:50;;;;;;;;;15.00;13.50;;;;;-147.17;100.00;-15917.19;4991408;28;50991;-70
2023/01/31 02:25:21;;;;;;;;;16.50;14.50;;;;;-147.17;100.00;-15917.19;4973385;28;51130;-70
2023/01/31 02:28:01;;;;;;;;;14.75;13.00;;;;;-147.17;100.00;-15917.19;4991821;28;51188;-68
2023/01/31 02:30:52;;;;;;;;;7.75;7.75;;;;;-147.17;100.00;-15917.19;4987666;28;51193;-68
2023/01/31 02:33:35;;;;;;;;;19.00;17.25;;;;;-147.17;100.00;-15917.19;4987679;28;51146;-69
2023/01/31 02:36:29;;;;;;;;;19.75;17.50;;;;;-147.17;100.00;-15917.19;4993872;28;51331;-70
2023/01/31 02:39:13;;;;;;;;;18.00;14.75;;;;;-147.17;100.00;-15917.19;4952837;28;51198;-69
2023/01/31 02:42:16;;;;;;;;;19.50;14.50;;;;;-147.17;100.00;-15917.19;4990611;28;51983;-69
2023/01/31 02:45:03;;;;;;;;;14.00;12.75;;;;;-147.17;100.00;-15917.19;4974153;28;51270;-69
2023/01/31 02:47:40;;;;;;;;;15.00;14.00;;;;;-147.17;100.00;-15917.19;4960854;28;51184;-69
2023/01/31 02:50:12;;;;;;;;;13.25;12.25;;;;;-147.17;100.00;-15917.19;4995847;28;51266;-69
2023/01/31 02:52:49;;;;;;;;;14.25;14.00;;;;;-147.17;100.00;-15917.19;4993772;28;51283;-69
2023/01/31 02:58:26;;;;;;;;;12.75;12.50;;;;;-147.17;100.00;-15917.19;4991576;28;51243;-68
2023/01/31 03:00:57;;;;;;;;;15.75;15.25;;;;;-147.17;100.00;-15917.19;4990532;28;51274;-69
2023/01/31 03:03:30;;;;;;;;;15.25;12.75;;;;;-147.17;100.00;-15917.19;4992505;28;53178;-70
2023/01/31 03:06:32;;;;;;;;;13.25;11.75;;;;;-147.17;100.00;-15917.19;4998449;28;51149;-71
2023/01/31 03:09:25;;;;;;;;;14.00;14.00;;;;;-147.17;100.00;-15917.19;4994407;28;51066;-71
2023/01/31 03:12:30;;;;;;;;;11.25;11.00;;;;;-147.17;100.00;-15917.19;4995710;28;51254;-72
2023/01/31 03:15:14;;;;;;;;;15.25;13.50;;;;;-147.17;100.00;-15917.19;4994498;28;51920;-71
2023/01/31 03:18:05;;;;;;;;;11.75;10.50;;;;;-147.17;100.00;-15917.19;4994750;28;51049;-72
2023/01/31 03:20:46;;;;;;;;;14.00;12.25;;;;;-147.17;100.00;-15917.19;4993792;28;51237;-69
2023/01/31 03:23:19;;;;;;;;;12.00;11.50;;;;;-147.17;100.00;-15917.19;4995415;28;51094;-71
2023/01/31 03:25:46;;;;;;;;;13.75;11.50;;;;;-147.17;100.00;-15917.19;4995054;28;52738;-71
2023/01/31 03:28:16;;;;;;;;;15.00;12.75;;;;;-147.17;100.00;-15917.19;4994684;28;51368;-71
2023/01/31 03:30:51;;;;;;;;;12.75;11.50;;;;;-147.17;100.00;-15917.19;4995432;28;51299;-72
2023/01/31 03:33:25;;;;;;;;;16.00;13.75;;;;;-147.17;100.00;-15917.19;4995772;28;51219;-69
2023/01/31 03:35:57;;;;;;;;;16.75;15.50;;;;;-147.17;100.00;-15917.19;4990100;28;52024;-69
2023/01/31 03:38:34;;;;;;;;;11.25;10.75;;;;;-147.17;100.00;-15917.19;4997646;28;51103;-71
2023/01/31 03:41:35;;;;;;;;;13.25;12.75;;;;;-147.17;100.00;-15917.19;4998149;28;51067;-72
2023/01/31 03:44:25;;;;;;;;;10.25;9.00;;;;;-147.17;100.00;-15917.19;4999597;28;51229;-71
2023/01/31 03:46:56;;;;;;;;;12.50;10.75;;;;;-147.17;100.00;-15917.19;4997932;28;51068;-69
2023/01/31 03:49:25;;;;;;;;;11.25;9.50;;;;;-147.17;100.00;-15917.19;4998944;28;51052;-70
2023/01/31 03:52:00;;;;;;;;;11.75;9.75;;;;;-147.17;100.00;-15917.19;4998264;28;51136;-70
2023/01/31 03:54:30;;;;;;;;;11.75;11.75;;;;;-147.17;100.00;-15917.19;4997922;28;51006;-70
2023/01/31 03:57:19;;;;;;;;;16.00;14.00;;;;;-147.17;100.00;-15917.19;4997147;28;51303;-70
2023/01/31 03:59:52;;;;;;;;;10.00;8.25;;;;;-147.17;100.00;-15917.19;4990449;28;51003;-69
2023/01/31 04:02:19;;;;;;;;;11.75;10.50;;;;;-147.17;100.00;-15917.19;5007672;28;51103;-69
2023/01/31 04:04:53;;;;;;;;;12.00;11.00;;;;;-147.17;100.00;-15917.19;4995589;28;51046;-70
2023/01/31 04:07:19;;;;;;;;;18.75;12.75;;;;;-147.17;100.00;-15917.19;4993578;28;51146;-68
2023/01/31 04:09:45;;;;;;;;;11.75;11.00;;;;;-147.17;100.00;-15917.19;4975032;28;51096;-68
2023/01/31 04:12:13;;;;;;;;;11.75;10.75;;;;;-147.17;100.00;-15917.19;4997260;28;51115;-70
2023/01/31 04:14:39;;;;;;;;;20.25;16.00;;;;;-147.17;100.00;-15917.19;4993205;28;51168;-70
2023/01/31 04:17:05;;;;;;;;;15.00;13.25;;;;;-147.17;100.00;-15917.19;4976406;28;51873;-70
2023/01/31 04:19:30;;;;;;;;;15.50;14.50;;;;;-147.17;100.00;-15917.19;4993668;28;51067;-71
2023/01/31 04:21:55;;;;;;;;;7.50;6.50;;;;;-147.17;100.00;-15917.19;4993957;28;51085;-71
2023/01/31 04:24:21;;;;;;;;;11.00;10.50;;;;;-147.17;100.00;-15917.19;4993118;28;50957;-75
2023/01/31 04:26:47;;;;;;;;;10.75;9.25;;;;;-147.17;100.00;-15917.19;4977425;28;53821;-76
2023/01/31 04:29:12;;;;;;;;;14.00;11.50;;;;;-147.17;100.00;-15917.19;4979579;28;51275;-75
2023/01/31 04:31:39;;;;;;;;;21.75;16.25;;;;;-147.17;100.00;-15917.19;4997768;28;51171;-75
2023/01/31 04:34:04;;;;;;;;;12.00;10.25;;;;;-147.17;100.00;-15917.19;4999167;28;51115;-74
2023/01/31 04:36:29;;;;;;;;;26.00;23.50;;;;;-147.17;100.00;-15917.19;4980177;28;52045;-75
2023/01/31 04:38:55;;;;;;;;;23.75;22.75;;;;;-147.17;100.00;-15917.19;4980078;28;51131;-76
2023/01/31 04:41:20;;;;;;;;;35.25;32.50;;;;;-147.17;100.00;-15917.19;4997877;28;51276;-75
2023/01/31 04:43:45;;;;;;;;;11.75;11.25;;;;;-147.17;100.00;-15917.19;4984352;28;51477;-74
2023/01/31 04:46:11;;;;;;;;;22.00;18.75;;;;;-147.17;100.00;-15917.19;4995011;28;51852;-74
2023/01/31 04:48:38;;;;;;;;;19.50;18.00;;;;;-147.17;100.00;-15917.19;4979053;28;51270;-72
2023/01/31 04:51:03;;;;;;;;;15.25;14.50;;;;;-147.17;100.00;-15917.19;4990746;28;51100;-72
2023/01/31 04:53:28;;;;;;;;;11.00;11.00;;;;;-147.17;100.00;-15917.19;4977880;28;51340;-71
2023/01/31 04:55:54;;;;;;;;;11.25;10.50;;;;;-147.17;100.00;-15917.19;4994554;28;51181;-72
2023/01/31 04:58:20;;;;;;;;;20.75;19.00;;;;;-147.17;100.00;-15917.19;4995079;28;51143;-72
2023/01/31 05:00:45;;;;;;;;;24.75;23.00;;;;;-147.17;100.00;-15917.19;4980606;28;51344;-73
2023/01/31 05:03:11;;;;;;;;;14.50;11.75;;;;;-147.17;100.00;-15917.19;4996980;28;51352;-74
2023/01/31 05:05:37;;;;;;;;;16.00;16.00;;;;;-147.17;100.00;-15917.19;4997662;28;51123;-75
2023/01/31 05:08:02;;;;;;;;;16.75;16.00;;;;;-147.17;100.00;-15917.19;4997731;28;51022;-74
2023/01/31 05:10:28;;;;;;;;;17.25;12.25;;;;;-147.17;100.00;-15917.19;4998224;28;51080;-74
2023/01/31 05:12:53;;;;;;;;;9.50;7.00;;;;;-147.17;100.00;-15917.19;4996668;28;50936;-72
2023/01/31 05:15:19;;;;;;;;;12.25;11.00;;;;;-147.17;100.00;-15917.19;4976291;28;53604;-76
2023/01/31 05:17:50;;;;;;;;;14.75;14.25;;;;;-147.17;100.00;-15917.19;4978207;28;51281;-76
2023/01/31 05:20:15;;;;;;;;;10.00;10.00;;;;;-147.17;100.00;-15917.19;4998678;28;51112;-75
2023/01/31 05:22:41;;;;;;;;;10.75;9.50;;;;;-147.17;100.00;-15917.19;4997660;28;51142;-75
2023/01/31 05:25:06;;;;;;;;;7.00;7.00;;;;;-147.17;100.00;-15917.19;4997855;28;51509;-74
2023/01/31 05:27:32;;;;;;;;;11.25;10.50;;;;;-147.17;100.00;-15917.19;4999487;28;51127;-76
2023/01/31 05:29:59;;;;;;;;;15.00;12.25;;;;;-147.17;100.00;-15917.19;4999471;28;51201;-74
2023/01/31 05:32:24;;;;;;;;;14.75;11.25;;;;;-147.17;100.00;-15917.19;4997053;28;51047;-73
2023/01/31 05:34:50;;;;;;;;;11.25;9.50;;;;;-147.17;100.00;-15917.19;4996740;28;51820;-74
2023/01/31 05:37:15;;;;;;;;;7.75;6.25;;;;;-147.17;100.00;-15917.19;4975794;28;51276;-72
2023/01/31 05:39:40;;;;;;;;;10.25;10.25;;;;;-147.17;100.00;-15917.19;4993225;28;51359;-73
2023/01/31 05:42:06;;;;;;;;;11.50;11.50;;;;;-147.17;100.00;-15917.19;4992615;28;51102;-73
2023/01/31 05:44:32;;;;;;;;;12.00;10.00;;;;;-147.17;100.00;-15917.19;4992995;28;52310;-74
2023/01/31 05:46:57;;;;;;;;;11.50;10.50;;;;;-147.17;100.00;-15917.19;4993875;28;51337;-74
2023/01/31 05:49:22;;;;;;;;;10.00;10.00;;;;;-147.17;100.00;-15917.19;4976110;28;51267;-72
2023/01/31 05:51:48;;;;;;;;;11.25;9.50;;;;;-147.17;100.00;-15917.19;4993605;28;51082;-75
2023/01/31 05:54:13;;;;;;;;;9.75;9.00;;;;;-147.17;100.00;-15917.19;4992778;28;51011;-74
2023/01/31 05:56:39;;;;;;;;;11.00;10.00;;;;;-147.17;100.00;-15917.19;4993367;28;51092;-75
2023/01/31 05:59:04;;;;;;;;;7.75;7.75;;;;;-147.17;100.00;-15917.19;4993313;28;51035;-73
2023/01/31 06:01:30;;;;;;;;;7.75;7.00;;;;;-147.17;100.00;-15917.19;4992233;28;51136;-72
2023/01/31 06:03:55;;;;;;;;;11.75;9.50;;;;;-147.17;100.00;-15917.19;4992935;28;51710;-76
2023/01/31 06:06:20;;;;;;;;;11.00;10.00;;;;;-147.17;100.00;-15917.19;4993064;28;51191;-77
2023/01/31 06:08:46;;;;;;;;;9.00;9.00;;;;;-147.17;100.00;-15917.19;4992754;28;50870;-75
2023/01/31 06:11:13;;;;;;;;;11.00;10.00;;;;;-147.17;100.00;-15917.19;4993354;28;51043;-75
2023/01/31 06:13:43;;;;;;;;;10.50;7.75;;;;;-147.17;100.00;-15917.19;4993068;28;51401;-72
2023/01/31 06:16:09;;;;;;;;;11.00;8.25;;;;;-147.17;100.00;-15917.19;4993208;28;51409;-74
2023/01/31 06:18:35;;;;;;;;;10.00;9.50;;;;;-147.17;100.00;-15917.19;4993101;28;51061;-74
2023/01/31 06:21:00;;;;;;;;;10.00;9.50;;;;;-147.17;100.00;-15917.19;4992991;28;51337;-73
2023/01/31 06:23:26;;;;;;;;;9.25;7.75;;;;;-147.17;100.00;-15917.19;4992914;28;51193;-74
2023/01/31 06:25:53;;;;;;;;;11.50;9.00;;;;;-147.17;100.00;-15917.19;4991391;28;51164;-74
2023/01/31 06:28:18;;;;;;;;;12.75;10.50;;;;;-147.17;100.00;-15917.19;5001511;28;51959;-74
2023/01/31 06:30:44;;;;;;;;;11.50;10.25;;;;;-147.17;100.00;-15917.19;4990875;28;51114;-73
2023/01/31 06:33:11;;;;;;;;;11.00;7.25;;;;;-147.17;100.00;-15917.19;4991323;28;51771;-75
2023/01/31 06:35:37;;;;;;;;;10.75;9.00;;;;;-147.17;100.00;-15917.19;4989034;28;51205;-73
2023/01/31 06:38:03;;;;;;;;;7.00;7.00;;;;;-147.17;100.00;-15917.19;4987911;28;51116;-75
2023/01/31 06:40:29;;;;;;;;;8.25;8.25;;;;;-147.17;100.00;-15917.19;4990756;28;51420;-74
2023/01/31 06:42:55;;;;;;;;;10.00;8.75;;;;;-147.17;100.00;-15917.19;4990563;28;51113;-75
2023/01/31 06:45:20;;;;;;;;;9.75;8.25;;;;;-147.17;100.00;-15917.19;4991188;28;51094;-72
2023/01/31 06:47:46;;;;;;;;;10.25;10.00;;;;;-147.17;100.00;-15917.19;4994883;28;51202;-73
2023/01/31 06:50:12;;;;;;;;;11.25;7.75;;;;;-147.17;100.00;-15917.19;4995638;28;51364;-72
2023/01/31 06:52:38;;;;;;;;;13.00;10.50;;;;;-147.17;100.00;-15917.19;4995740;28;54221;-75
2023/01/31 06:55:04;;;;;;;;;10.00;8.25;;;;;-147.17;100.00;-15917.19;4979884;28;51223;-73
2023/01/31 06:57:30;;;;;;;;;11.50;10.50;;;;;-147.17;100.00;-15917.19;4995369;28;51070;-74
2023/01/31 06:59:55;;;;;;;;;7.00;6.25;;;;;-147.17;100.00;-15917.19;4994249;28;51480;-73
2023/01/31 07:02:21;;;;;;;;;8.25;6.75;;;;;-147.17;100.00;-15917.19;4992414;28;51217;-73
2023/01/31 07:04:46;;;;;;;;;7.50;6.25;;;;;-147.17;100.00;-15917.19;4989340;28;51213;-72
2023/01/31 07:07:11;;;;;;;;;7.25;7.25;;;;;-147.17;100.00;-15917.19;4976813;28;51142;-72
2023/01/31 07:09:37;;;;;;;;;9.75;6.00;;;;;-147.17;100.00;-15917.19;4991048;28;51224;-73
2023/01/31 07:12:02;;;;;;;;;7.25;7.25;;;;;-147.17;100.00;-15917.19;4993911;28;51491;-73
2023/01/31 07:14:28;;;;;;;;;10.25;8.75;;;;;-147.17;100.00;-15917.19;4990957;28;51282;-74
2023/01/31 07:16:53;;;;;;;;;8.25;7.25;;;;;-147.17;100.00;-15917.19;4990388;28;50948;-74
2023/01/31 07:19:18;;;;;;;;;10.50;8.00;;;;;-147.17;100.00;-15917.19;4990184;28;51065;-75
2023/01/31 07:21:44;;;;;;;;;10.00;9.25;;;;;-147.17;100.00;-15917.19;4990155;28;51272;-73
2023/01/31 07:24:09;;;;;;;;;11.25;7.25;;;;;-147.17;100.00;-15917.19;4988604;28;51290;-73
2023/01/31 07:26:35;;;;;;;;;10.25;9.50;;;;;-147.17;100.00;-15917.19;4990377;28;51078;-71
2023/01/31 07:29:00;;;;;;;;;6.75;5.75;;;;;-147.17;100.00;-15917.19;4991414;28;51232;-73
2023/01/31 07:31:25;;;;;;;;;8.00;7.00;;;;;-147.17;100.00;-15917.19;4974355;28;52283;-72
2023/01/31 07:33:51;;;;;;;;;7.00;6.50;;;;;-147.17;100.00;-15917.19;4992445;28;50985;-73
2023/01/31 07:36:21;;;;;;;;;6.25;6.00;;;;;-147.17;100.00;-15917.19;4993011;28;51223;-72
2023/01/31 07:38:47;;;;;;;;;12.00;7.75;;;;;-147.17;100.00;-15917.19;4991643;28;51260;-71
2023/01/31 07:41:12;;;;;;;;;6.00;5.50;;;;;-147.17;100.00;-15917.19;4990669;28;52277;-74
2023/01/31 07:43:43;;;;;;;;;5.00;5.00;;;;;-147.17;100.00;-15917.19;4976156;28;51167;-74
2023/01/31 07:46:09;;;;;;;;;8.50;7.25;;;;;-147.17;100.00;-15917.19;4994111;28;51035;-74
2023/01/31 07:48:35;;;;;;;;;6.75;6.50;;;;;-147.17;100.00;-15917.19;4992350;28;51135;-72
2023/01/31 07:51:02;;;;;;;;;9.50;9.00;;;;;-147.17;100.00;-15917.19;4994798;28;51767;-72
2023/01/31 07:53:30;;;;;;;;;7.00;6.00;;;;;-147.17;100.00;-15917.19;4994883;28;51008;-72
2023/01/31 07:56:05;;;;;;;;;36.50;35.00;;;;;-147.17;100.00;-15917.19;4994701;28;51187;-72
2023/01/31 07:58:30;;;;;;;;;10.00;8.50;;;;;-147.17;100.00;-15917.19;4983485;28;51198;-73
2023/01/31 08:03:40;;;;;;;;;12.50;8.25;;;;;-147.17;100.00;-15917.19;4995084;28;51132;-74
2023/01/31 08:06:08;;;;;;;;;12.50;11.25;;;;;-147.17;100.00;-15917.19;4994945;28;51295;-73
2023/01/31 08:08:36;;;;;;;;;18.25;14.50;;;;;-147.17;100.00;-15917.19;4974379;28;51203;-72
2023/01/31 08:11:05;;;;;;;;;10.00;9.50;;;;;-147.17;100.00;-15917.19;4993490;28;51704;-74
2023/01/31 08:13:32;;;;;;;;;7.75;6.00;;;;;-147.17;100.00;-15917.19;4996637;28;51072;-74
2023/01/31 08:15:58;;;;;;;;;6.00;6.00;;;;;-147.17;100.00;-15917.19;4995846;28;51325;-74
2023/01/31 08:18:23;;;;;;;;;8.75;7.75;;;;;-147.17;100.00;-15917.19;4995303;28;51369;-72
2023/01/31 08:20:49;;;;;;;;;11.00;8.75;;;;;-147.17;100.00;-15917.19;4976387;28;51671;-73
2023/01/31 08:23:14;;;;;;;;;15.00;14.50;;;;;-147.17;100.00;-15917.19;4994495;28;51109;-73
2023/01/31 08:25:40;;;;;;;;;10.75;8.50;;;;;-147.17;100.00;-15917.19;4978141;28;51103;-71
2023/01/31 08:28:05;;;;;;;;;9.25;9.00;;;;;-147.17;100.00;-15917.19;4997695;28;51319;-74
2023/01/31 08:30:31;;;;;;;;;12.00;10.25;;;;;-147.17;100.00;-15917.19;4979242;28;51933;-75
2023/01/31 08:32:56;;;;;;;;;6.75;6.75;;;;;-147.17;100.00;-15917.19;4998167;28;50940;-70
2023/01/31 08:35:23;;;;;;;;;4.25;2.00;;;;;-147.17;100.00;-15917.19;4981160;28;51165;-75
2023/01/31 08:37:49;;;;;;;;;10.50;8.25;;;;;-147.17;100.00;-15917.19;4998064;28;50886;-72
2023/01/31 08:40:14;;;;;;;;;16.50;13.50;;;;;-147.17;100.00;-15917.19;4998530;28;51057;-73
2023/01/31 08:42:40;;;;;;;;;8.00;7.00;;;;;-147.17;100.00;-15917.19;4979927;28;51250;-70
2023/01/31 08:45:06;;;;;;;;;7.75;7.25;;;;;-147.17;100.00;-15917.19;4996486;28;51071;-70
2023/01/31 08:47:32;;;;;;;;;6.25;5.00;;;;;-147.17;100.00;-15917.19;4978938;28;50997;-71
2023/01/31 08:49:57;;;;;;;;;16.25;13.00;;;;;-147.17;100.00;-15917.19;4991906;28;51300;-72
2023/01/31 08:52:22;;;;;;;;;8.00;8.00;;;;;-147.17;100.00;-15917.19;4992295;28;50972;-70
2023/01/31 08:54:48;;;;;;;;;11.75;7.00;;;;;-147.17;100.00;-15917.19;4995010;28;51062;-72
2023/01/31 08:57:14;;;;;;;;;7.50;6.00;;;;;-147.17;100.00;-15917.19;4990890;28;51278;-70
2023/01/31 08:59:39;;;;;;;;;16.00;14.25;;;;;-147.17;100.00;-15917.19;4997159;28;51967;-70
2023/01/31 09:02:04;;;;;;;;;10.50;8.50;;;;;-147.17;100.00;-15917.19;4990621;28;51104;-69
2023/01/31 09:04:30;;;;;;;;;16.75;12.00;;;;;-147.17;100.00;-15917.19;4994301;28;51202;-70
2023/01/31 09:06:55;;;;;;;;;11.50;9.25;;;;;-147.17;100.00;-15917.19;4989928;28;51214;-71
2023/01/31 09:09:21;;;;;;;;;9.25;9.25;;;;;-147.17;100.00;-15917.19;4995925;28;52020;-69
2023/01/31 09:11:46;;;;;;;;;10.25;9.25;;;;;-147.17;100.00;-15917.19;4991086;28;51177;-72
2023/01/31 09:14:11;;;;;;;;;16.75;14.50;;;;;-147.17;100.00;-15917.19;4993652;28;51041;-72
2023/01/31 09:16:37;;;;;;;;;10.50;8.75;;;;;-147.17;100.00;-15917.19;4991925;28;51220;-75
2023/01/31 09:19:02;;;;;;;;;9.50;9.00;;;;;-147.17;100.00;-15917.19;4974706;28;51727;-72
2023/01/31 09:21:28;;;;;;;;;11.75;8.50;;;;;-147.17;100.00;-15917.19;4992183;28;51094;-72
2023/01/31 09:23:56;;;;;;;;;12.25;12.00;;;;;-147.17;100.00;-15917.19;4995412;28;51130;-74
2023/01/31 09:26:22;;;;;;;;;10.00;9.00;;;;;-147.17;100.00;-15917.19;4997300;28;51176;-72
2023/01/31 09:28:49;;;;;;;;;13.25;11.25;;;;;-147.17;100.00;-15917.19;4995315;28;51341;-71
2023/01/31 09:31:17;;;;;;;;;10.25;8.25;;;;;-147.17;100.00;-15917.19;4994332;28;51109;-71
2023/01/31 09:33:42;;;;;;;;;7.50;6.50;;;;;-147.17;100.00;-15917.19;4981615;28;51245;-70
2023/01/31 09:36:17;;;;;;;;;9.00;8.25;;;;;-147.17;100.00;-15917.19;4995721;28;51341;-70
2023/01/31 09:38:43;;;;;;;;;8.00;5.50;;;;;-147.17;100.00;-15917.19;4995075;28;51280;-69
2023/01/31 09:41:42;;;;;;;;;13.50;11.00;;;;;-147.17;100.00;-15917.19;4995970;28;51004;-69
2023/01/31 09:44:13;;;;;;;;;11.00;9.00;;;;;-147.17;100.00;-15917.19;4975349;28;51361;-70
2023/01/31 09:46:46;;;;;;;;;8.75;7.00;;;;;-147.17;100.00;-15917.19;4959883;28;50974;-72
2023/01/31 09:49:22;;;;;;;;;7.00;7.00;;;;;-147.17;100.00;-15917.19;4994268;28;51961;-70
2023/01/31 09:51:54;;;;;;;;;8.50;8.50;;;;;-147.17;100.00;-15917.19;4994896;28;51109;-76
2023/01/31 09:54:32;;;;;;;;;7.00;6.25;;;;;-147.17;100.00;-15917.19;4996000;28;51209;-75
2023/01/31 09:57:07;;;;;;;;;11.25;9.50;;;;;-147.17;100.00;-15917.19;4993610;28;51163;-73
2023/01/31 09:59:53;;;;;;;;;7.50;6.50;;;;;-147.17;100.00;-15917.19;4997276;28;52252;-74
2023/01/31 10:02:24;;;;;;;;;8.50;8.00;;;;;-147.17;100.00;-15917.19;4999639;28;51036;-74
2023/01/31 10:05:27;;;;;;;;;9.25;8.75;;;;;-147.17;100.00;-15917.19;5003516;28;51066;-73
2023/01/31 10:08:05;;;;;;;;;12.75;12.25;;;;;-147.17;100.00;-15917.19;5001193;28;51356;-73
2023/01/31 10:10:48;;;;;;;;;8.25;8.00;;;;;-147.17;100.00;-15917.19;5000751;28;51327;-74
2023/01/31 10:13:40;;;;;;;;;13.25;10.00;;;;;-147.17;100.00;-15917.19;5001357;28;50506;-75
2023/01/31 10:16:20;;;;;;;;;7.50;7.50;;;;;-147.17;100.00;-15917.19;5002830;28;51064;-75
2023/01/31 10:18:52;;;;;;;;;9.25;9.00;;;;;-147.17;100.00;-15917.19;4972904;28;50997;-74
2023/01/31 10:21:23;;;;;;;;;11.75;11.00;;;;;-147.17;100.00;-15917.19;5005262;28;51126;-72
2023/01/31 10:24:17;;;;;;;;;8.50;7.25;;;;;-147.17;100.00;-15917.19;5005186;28;50790;-73
2023/01/31 10:26:45;;;;;;;;;12.00;12.00;;;;;-147.17;100.00;-15917.19;5005204;28;51140;-74
2023/01/31 10:29:27;;;;;;;;;13.25;13.00;;;;;-147.17;100.00;-15917.19;4986276;28;50882;-75
2023/01/31 10:32:03;;;;;;;;;14.25;12.25;;;;;-147.17;100.00;-15917.19;5000588;28;52245;-76
2023/01/31 10:34:40;;;;;;;;;16.75;13.50;;;;;-147.17;100.00;-15917.19;5004710;28;50917;-74
2023/01/31 10:37:08;;;;;;;;;11.75;9.75;;;;;-147.17;100.00;-15917.19;4999336;28;51099;-75
2023/01/31 10:39:43;;;;;;;;;10.50;9.00;;;;;-147.17;100.00;-15917.19;5000551;28;51079;-72
2023/01/31 10:42:28;;;;;;;;;7.50;7.00;;;;;-147.17;100.00;-15917.19;4985729;28;51125;-75
2023/01/31 10:45:18;;;;;;;;;7.75;7.00;;;;;-147.17;100.00;-15917.19;5000755;28;50998;-74
2023/01/31 10:47:49;;;;;;;;;11.00;9.50;;;;;-147.17;100.00;-15917.19;4980867;28;51306;-74
2023/01/31 10:50:39;;;;;;;;;7.25;7.25;;;;;-147.17;100.00;-15917.19;5002996;28;51170;-74
2023/01/31 10:53:33;;;;;;;;;9.50;8.75;;;;;-147.17;100.00;-15917.19;5003285;28;50966;-75
2023/01/31 10:56:28;;;;;;;;;8.00;7.25;;;;;-147.17;100.00;-15917.19;5002119;28;50868;-73
2023/01/31 10:58:55;;;;;;;;;13.25;10.25;;;;;-147.17;100.00;-15917.19;5001536;28;51133;-74
2023/01/31 11:01:20;;;;;;;;;9.50;9.00;;;;;-147.17;100.00;-15917.19;5002065;28;50987;-74
2023/01/31 11:03:52;;;;;;;;;11.25;10.00;;;;;-147.17;100.00;-15917.19;5002970;28;51640;-76
2023/01/31 11:06:18;;;;;;;;;11.50;10.25;;;;;-147.17;100.00;-15917.19;5000877;28;50409;-73
2023/01/31 11:08:48;;;;;;;;;10.75;10.25;;;;;-147.17;100.00;-15917.19;5000762;28;50920;-74
2023/01/31 11:11:19;;;;;;;;;9.50;8.25;;;;;-147.17;100.00;-15917.19;5012247;28;51016;-76